sensor_id;sensor_type;location;lat;lon;timestamp;P1;durP1;ratioP1;P2;durP2;ratioP2
1613;SDS011;800;48.824;9.346;2022-07-25T00:00:07;11.70;;;10.80;;
1613;SDS011;800;48.824;9.346;2022-07-25T00:02:34;11.70;;;10.70;;
1613;SDS011;800;48.824;9.346;2022-07-25T00:05:00;13.07;;;11.97;;
1613;SDS011;800;48.824;9.346;2022-07-25T00:07:26;12.70;;;11.60;;
1613;SDS011;800;48.824;9.346;2022-07-25T00:09:52;11.33;;;10.40;;
1613;SDS011;800;48.824;9.346;2022-07-25T00:12:18;12.10;;;11.20;;
1613;SDS011;800;48.824;9.346;2022-07-25T00:14:44;12.40;;;11.20;;
1613;SDS011;800;48.824;9.346;2022-07-25T00:17:10;14.00;;;12.90;;
1613;SDS011;800;48.824;9.346;2022-07-25T00:19:35;13.27;;;12.17;;
1613;SDS011;800;48.824;9.346;2022-07-25T00:22:01;12.37;;;11.40;;
1613;SDS011;800;48.824;9.346;2022-07-25T00:24:27;12.00;;;11.10;;
1613;SDS011;800;48.824;9.346;2022-07-25T00:26:53;13.40;;;12.23;;
1613;SDS011;800;48.824;9.346;2022-07-25T00:29:19;12.20;;;11.10;;
1613;SDS011;800;48.824;9.346;2022-07-25T00:31:44;12.50;;;11.50;;
1613;SDS011;800;48.824;9.346;2022-07-25T00:34:10;11.83;;;10.83;;
1613;SDS011;800;48.824;9.346;2022-07-25T00:36:35;12.47;;;11.37;;
1613;SDS011;800;48.824;9.346;2022-07-25T00:39:02;14.50;;;10.20;;
1613;SDS011;800;48.824;9.346;2022-07-25T00:41:28;13.40;;;12.10;;
1613;SDS011;800;48.824;9.346;2022-07-25T00:43:54;12.40;;;11.40;;
1613;SDS011;800;48.824;9.346;2022-07-25T00:46:19;12.80;;;11.90;;
1613;SDS011;800;48.824;9.346;2022-07-25T00:48:45;12.57;;;11.57;;
1613;SDS011;800;48.824;9.346;2022-07-25T00:51:10;13.90;;;12.70;;
1613;SDS011;800;48.824;9.346;2022-07-25T00:53:36;12.30;;;11.30;;
1613;SDS011;800;48.824;9.346;2022-07-25T00:56:03;13.60;;;12.50;;
1613;SDS011;800;48.824;9.346;2022-07-25T00:58:30;11.97;;;11.07;;
1613;SDS011;800;48.824;9.346;2022-07-25T01:00:57;13.57;;;12.37;;
1613;SDS011;800;48.824;9.346;2022-07-25T01:03:23;12.40;;;11.40;;
1613;SDS011;800;48.824;9.346;2022-07-25T01:05:49;12.63;;;11.57;;
1613;SDS011;800;48.824;9.346;2022-07-25T01:08:18;13.10;;;12.00;;
1613;SDS011;800;48.824;9.346;2022-07-25T01:10:45;11.80;;;10.80;;
1613;SDS011;800;48.824;9.346;2022-07-25T01:13:12;11.40;;;10.33;;
1613;SDS011;800;48.824;9.346;2022-07-25T01:15:38;12.10;;;11.17;;
1613;SDS011;800;48.824;9.346;2022-07-25T01:18:04;12.40;;;10.90;;
1613;SDS011;800;48.824;9.346;2022-07-25T01:20:30;12.83;;;11.53;;
1613;SDS011;800;48.824;9.346;2022-07-25T01:22:57;12.30;;;11.30;;
1613;SDS011;800;48.824;9.346;2022-07-25T01:25:23;13.10;;;11.90;;
1613;SDS011;800;48.824;9.346;2022-07-25T01:27:50;12.53;;;11.43;;
1613;SDS011;800;48.824;9.346;2022-07-25T01:30:17;12.43;;;11.50;;
1613;SDS011;800;48.824;9.346;2022-07-25T01:32:44;13.00;;;11.80;;
1613;SDS011;800;48.824;9.346;2022-07-25T01:35:10;13.30;;;12.20;;
1613;SDS011;800;48.824;9.346;2022-07-25T01:37:37;12.67;;;11.47;;
1613;SDS011;800;48.824;9.346;2022-07-25T01:40:03;10.70;;;9.90;;
1613;SDS011;800;48.824;9.346;2022-07-25T01:42:29;12.53;;;11.43;;
1613;SDS011;800;48.824;9.346;2022-07-25T01:44:55;12.93;;;11.17;;
1613;SDS011;800;48.824;9.346;2022-07-25T01:47:21;11.60;;;10.70;;
1613;SDS011;800;48.824;9.346;2022-07-25T01:49:46;12.63;;;11.63;;
1613;SDS011;800;48.824;9.346;2022-07-25T01:52:12;11.77;;;10.87;;
1613;SDS011;800;48.824;9.346;2022-07-25T01:54:38;12.90;;;11.87;;
1613;SDS011;800;48.824;9.346;2022-07-25T01:57:04;12.10;;;11.10;;
1613;SDS011;800;48.824;9.346;2022-07-25T01:59:30;12.90;;;11.83;;
1613;SDS011;800;48.824;9.346;2022-07-25T02:01:56;12.43;;;11.43;;
1613;SDS011;800;48.824;9.346;2022-07-25T02:04:22;12.87;;;11.67;;
1613;SDS011;800;48.824;9.346;2022-07-25T02:06:47;13.33;;;11.80;;
1613;SDS011;800;48.824;9.346;2022-07-25T02:09:13;12.30;;;11.10;;
1613;SDS011;800;48.824;9.346;2022-07-25T02:11:39;12.47;;;11.27;;
1613;SDS011;800;48.824;9.346;2022-07-25T02:14:04;12.47;;;11.37;;
1613;SDS011;800;48.824;9.346;2022-07-25T02:16:30;12.13;;;11.23;;
1613;SDS011;800;48.824;9.346;2022-07-25T02:18:56;11.47;;;10.57;;
1613;SDS011;800;48.824;9.346;2022-07-25T02:21:21;12.80;;;11.70;;
1613;SDS011;800;48.824;9.346;2022-07-25T02:23:47;11.87;;;10.87;;
1613;SDS011;800;48.824;9.346;2022-07-25T02:26:13;12.40;;;11.30;;
1613;SDS011;800;48.824;9.346;2022-07-25T02:28:38;12.10;;;11.10;;
1613;SDS011;800;48.824;9.346;2022-07-25T02:31:04;13.30;;;12.20;;
1613;SDS011;800;48.824;9.346;2022-07-25T02:33:30;11.70;;;10.80;;
1613;SDS011;800;48.824;9.346;2022-07-25T02:35:56;11.90;;;11.00;;
1613;SDS011;800;48.824;9.346;2022-07-25T02:38:21;12.30;;;11.17;;
1613;SDS011;800;48.824;9.346;2022-07-25T02:40:48;12.10;;;11.00;;
1613;SDS011;800;48.824;9.346;2022-07-25T02:43:15;12.30;;;11.40;;
1613;SDS011;800;48.824;9.346;2022-07-25T02:45:41;13.00;;;11.90;;
1613;SDS011;800;48.824;9.346;2022-07-25T02:48:07;12.73;;;11.73;;
1613;SDS011;800;48.824;9.346;2022-07-25T02:50:32;12.87;;;11.70;;
1613;SDS011;800;48.824;9.346;2022-07-25T02:52:59;12.57;;;11.50;;
1613;SDS011;800;48.824;9.346;2022-07-25T02:55:25;12.27;;;11.03;;
1613;SDS011;800;48.824;9.346;2022-07-25T02:57:50;13.10;;;12.07;;
1613;SDS011;800;48.824;9.346;2022-07-25T03:00:16;12.23;;;11.23;;
1613;SDS011;800;48.824;9.346;2022-07-25T03:02:42;12.90;;;11.90;;
1613;SDS011;800;48.824;9.346;2022-07-25T03:05:11;12.67;;;11.47;;
1613;SDS011;800;48.824;9.346;2022-07-25T03:07:39;12.30;;;11.30;;
1613;SDS011;800;48.824;9.346;2022-07-25T03:10:06;13.27;;;12.07;;
1613;SDS011;800;48.824;9.346;2022-07-25T03:12:33;12.93;;;11.83;;
1613;SDS011;800;48.824;9.346;2022-07-25T03:14:59;12.43;;;11.33;;
1613;SDS011;800;48.824;9.346;2022-07-25T03:17:26;13.07;;;12.07;;
1613;SDS011;800;48.824;9.346;2022-07-25T03:19:53;13.50;;;12.30;;
1613;SDS011;800;48.824;9.346;2022-07-25T03:22:19;12.43;;;11.23;;
1613;SDS011;800;48.824;9.346;2022-07-25T03:24:45;12.27;;;11.10;;
1613;SDS011;800;48.824;9.346;2022-07-25T03:27:10;12.87;;;11.77;;
1613;SDS011;800;48.824;9.346;2022-07-25T03:29:36;12.30;;;11.30;;
1613;SDS011;800;48.824;9.346;2022-07-25T03:32:01;12.33;;;11.00;;
1613;SDS011;800;48.824;9.346;2022-07-25T03:34:28;12.43;;;11.33;;
1613;SDS011;800;48.824;9.346;2022-07-25T03:36:53;12.17;;;11.07;;
1613;SDS011;800;48.824;9.346;2022-07-25T03:39:19;11.87;;;10.87;;
1613;SDS011;800;48.824;9.346;2022-07-25T03:41:45;12.40;;;11.20;;
1613;SDS011;800;48.824;9.346;2022-07-25T03:44:12;11.13;;;10.23;;
1613;SDS011;800;48.824;9.346;2022-07-25T03:46:37;11.00;;;10.10;;
1613;SDS011;800;48.824;9.346;2022-07-25T03:49:03;11.23;;;10.33;;
1613;SDS011;800;48.824;9.346;2022-07-25T03:51:29;12.50;;;11.43;;
1613;SDS011;800;48.824;9.346;2022-07-25T03:53:55;13.80;;;11.70;;
1613;SDS011;800;48.824;9.346;2022-07-25T03:56:27;11.97;;;11.07;;
1613;SDS011;800;48.824;9.346;2022-07-25T03:58:57;12.73;;;11.60;;
1613;SDS011;800;48.824;9.346;2022-07-25T04:01:23;13.43;;;12.23;;
1613;SDS011;800;48.824;9.346;2022-07-25T04:03:48;13.70;;;12.60;;
1613;SDS011;800;48.824;9.346;2022-07-25T04:06:14;12.67;;;11.67;;
1613;SDS011;800;48.824;9.346;2022-07-25T04:08:40;12.33;;;11.20;;
1613;SDS011;800;48.824;9.346;2022-07-25T04:11:05;12.20;;;11.10;;
1613;SDS011;800;48.824;9.346;2022-07-25T04:13:31;12.80;;;11.80;;
1613;SDS011;800;48.824;9.346;2022-07-25T04:15:57;12.20;;;11.30;;
1613;SDS011;800;48.824;9.346;2022-07-25T04:18:23;13.00;;;11.93;;
1613;SDS011;800;48.824;9.346;2022-07-25T04:20:48;12.43;;;11.23;;
1613;SDS011;800;48.824;9.346;2022-07-25T04:23:14;11.67;;;10.77;;
1613;SDS011;800;48.824;9.346;2022-07-25T04:25:39;13.13;;;12.10;;
1613;SDS011;800;48.824;9.346;2022-07-25T04:28:05;11.77;;;10.87;;
1613;SDS011;800;48.824;9.346;2022-07-25T04:30:31;13.10;;;12.10;;
1613;SDS011;800;48.824;9.346;2022-07-25T04:32:56;12.10;;;11.20;;
1613;SDS011;800;48.824;9.346;2022-07-25T04:35:22;12.20;;;11.30;;
1613;SDS011;800;48.824;9.346;2022-07-25T04:37:48;12.90;;;11.90;;
1613;SDS011;800;48.824;9.346;2022-07-25T04:40:13;11.97;;;10.97;;
1613;SDS011;800;48.824;9.346;2022-07-25T04:42:39;12.00;;;11.00;;
1613;SDS011;800;48.824;9.346;2022-07-25T04:45:05;13.20;;;12.13;;
1613;SDS011;800;48.824;9.346;2022-07-25T04:47:30;11.63;;;10.73;;
1613;SDS011;800;48.824;9.346;2022-07-25T04:49:56;12.93;;;11.90;;
1613;SDS011;800;48.824;9.346;2022-07-25T04:52:22;12.87;;;11.63;;
1613;SDS011;800;48.824;9.346;2022-07-25T04:54:47;12.50;;;10.87;;
1613;SDS011;800;48.824;9.346;2022-07-25T04:57:13;12.70;;;11.50;;
1613;SDS011;800;48.824;9.346;2022-07-25T04:59:39;12.23;;;11.33;;
1613;SDS011;800;48.824;9.346;2022-07-25T05:02:04;11.70;;;10.80;;
1613;SDS011;800;48.824;9.346;2022-07-25T05:04:30;13.30;;;12.03;;
1613;SDS011;800;48.824;9.346;2022-07-25T05:06:55;13.97;;;12.77;;
1613;SDS011;800;48.824;9.346;2022-07-25T05:09:21;12.03;;;11.03;;
1613;SDS011;800;48.824;9.346;2022-07-25T05:11:47;12.93;;;11.70;;
1613;SDS011;800;48.824;9.346;2022-07-25T05:14:12;12.87;;;11.70;;
1613;SDS011;800;48.824;9.346;2022-07-25T05:16:38;12.27;;;11.33;;
1613;SDS011;800;48.824;9.346;2022-07-25T05:19:03;13.17;;;12.00;;
1613;SDS011;800;48.824;9.346;2022-07-25T05:21:29;12.63;;;11.43;;
1613;SDS011;800;48.824;9.346;2022-07-25T05:23:56;13.37;;;12.17;;
1613;SDS011;800;48.824;9.346;2022-07-25T05:26:21;12.30;;;11.30;;
1613;SDS011;800;48.824;9.346;2022-07-25T05:28:47;13.20;;;11.60;;
1613;SDS011;800;48.824;9.346;2022-07-25T05:31:12;12.13;;;11.20;;
1613;SDS011;800;48.824;9.346;2022-07-25T05:33:38;11.90;;;10.80;;
1613;SDS011;800;48.824;9.346;2022-07-25T05:36:04;12.90;;;11.80;;
1613;SDS011;800;48.824;9.346;2022-07-25T05:38:30;12.03;;;10.87;;
1613;SDS011;800;48.824;9.346;2022-07-25T05:40:56;11.07;;;10.27;;
1613;SDS011;800;48.824;9.346;2022-07-25T05:43:21;11.63;;;10.43;;
1613;SDS011;800;48.824;9.346;2022-07-25T05:45:47;13.30;;;12.07;;
1613;SDS011;800;48.824;9.346;2022-07-25T05:48:13;12.20;;;11.03;;
1613;SDS011;800;48.824;9.346;2022-07-25T05:50:39;11.43;;;10.50;;
1613;SDS011;800;48.824;9.346;2022-07-25T05:53:05;11.90;;;11.03;;
1613;SDS011;800;48.824;9.346;2022-07-25T05:55:31;12.27;;;11.37;;
1613;SDS011;800;48.824;9.346;2022-07-25T05:57:56;11.60;;;10.70;;
1613;SDS011;800;48.824;9.346;2022-07-25T06:00:22;12.13;;;11.10;;
1613;SDS011;800;48.824;9.346;2022-07-25T06:02:48;11.20;;;10.40;;
1613;SDS011;800;48.824;9.346;2022-07-25T06:05:14;12.07;;;11.07;;
1613;SDS011;800;48.824;9.346;2022-07-25T06:07:39;12.60;;;11.60;;
1613;SDS011;800;48.824;9.346;2022-07-25T06:10:05;11.03;;;10.20;;
1613;SDS011;800;48.824;9.346;2022-07-25T06:12:31;13.33;;;12.23;;
1613;SDS011;800;48.824;9.346;2022-07-25T06:15:00;11.50;;;10.60;;
1613;SDS011;800;48.824;9.346;2022-07-25T06:17:25;11.50;;;10.60;;
1613;SDS011;800;48.824;9.346;2022-07-25T06:19:51;11.40;;;10.53;;
1613;SDS011;800;48.824;9.346;2022-07-25T06:22:16;11.20;;;10.20;;
1613;SDS011;800;48.824;9.346;2022-07-25T06:24:43;11.73;;;10.60;;
1613;SDS011;800;48.824;9.346;2022-07-25T06:27:09;12.63;;;11.47;;
1613;SDS011;800;48.824;9.346;2022-07-25T06:29:36;12.00;;;11.00;;
1613;SDS011;800;48.824;9.346;2022-07-25T06:32:02;11.97;;;11.07;;
1613;SDS011;800;48.824;9.346;2022-07-25T06:34:28;11.37;;;10.47;;
1613;SDS011;800;48.824;9.346;2022-07-25T06:36:54;11.70;;;10.70;;
1613;SDS011;800;48.824;9.346;2022-07-25T06:39:21;11.10;;;10.20;;
1613;SDS011;800;48.824;9.346;2022-07-25T06:41:47;14.23;;;12.40;;
1613;SDS011;800;48.824;9.346;2022-07-25T06:44:13;14.00;;;12.60;;
1613;SDS011;800;48.824;9.346;2022-07-25T06:46:38;13.20;;;12.03;;
1613;SDS011;800;48.824;9.346;2022-07-25T06:49:04;10.20;;;9.50;;
1613;SDS011;800;48.824;9.346;2022-07-25T06:51:29;10.73;;;9.83;;
1613;SDS011;800;48.824;9.346;2022-07-25T06:53:55;11.77;;;10.57;;
1613;SDS011;800;48.824;9.346;2022-07-25T06:56:21;9.90;;;9.10;;
1613;SDS011;800;48.824;9.346;2022-07-25T06:58:46;12.10;;;11.20;;
1613;SDS011;800;48.824;9.346;2022-07-25T07:01:12;11.20;;;10.20;;
1613;SDS011;800;48.824;9.346;2022-07-25T07:03:38;12.33;;;11.43;;
1613;SDS011;800;48.824;9.346;2022-07-25T07:06:05;11.20;;;10.40;;
1613;SDS011;800;48.824;9.346;2022-07-25T07:08:32;11.03;;;10.13;;
1613;SDS011;800;48.824;9.346;2022-07-25T07:10:57;11.90;;;10.87;;
1613;SDS011;800;48.824;9.346;2022-07-25T07:13:23;10.57;;;9.77;;
1613;SDS011;800;48.824;9.346;2022-07-25T07:15:49;12.07;;;11.00;;
1613;SDS011;800;48.824;9.346;2022-07-25T07:18:16;11.80;;;10.90;;
1613;SDS011;800;48.824;9.346;2022-07-25T07:20:42;11.57;;;10.67;;
1613;SDS011;800;48.824;9.346;2022-07-25T07:23:08;12.40;;;11.27;;
1613;SDS011;800;48.824;9.346;2022-07-25T07:25:34;11.50;;;10.70;;
1613;SDS011;800;48.824;9.346;2022-07-25T07:27:59;11.77;;;10.77;;
1613;SDS011;800;48.824;9.346;2022-07-25T07:30:25;12.00;;;11.00;;
1613;SDS011;800;48.824;9.346;2022-07-25T07:32:51;12.00;;;11.10;;
1613;SDS011;800;48.824;9.346;2022-07-25T07:35:17;11.67;;;10.77;;
1613;SDS011;800;48.824;9.346;2022-07-25T07:37:43;10.87;;;10.07;;
1613;SDS011;800;48.824;9.346;2022-07-25T07:40:13;12.10;;;11.20;;
1613;SDS011;800;48.824;9.346;2022-07-25T07:42:41;11.17;;;10.37;;
1613;SDS011;800;48.824;9.346;2022-07-25T07:47:45;11.27;;;10.37;;
1613;SDS011;800;48.824;9.346;2022-07-25T07:50:13;10.73;;;9.87;;
1613;SDS011;800;48.824;9.346;2022-07-25T07:52:43;10.73;;;9.93;;
1613;SDS011;800;48.824;9.346;2022-07-25T07:55:09;10.27;;;9.30;;
1613;SDS011;800;48.824;9.346;2022-07-25T07:57:54;10.70;;;9.90;;
1613;SDS011;800;48.824;9.346;2022-07-25T08:00:20;10.50;;;9.70;;
1613;SDS011;800;48.824;9.346;2022-07-25T08:02:47;11.20;;;10.30;;
1613;SDS011;800;48.824;9.346;2022-07-25T08:05:25;10.77;;;9.97;;
1613;SDS011;800;48.824;9.346;2022-07-25T08:07:52;10.73;;;10.00;;
1613;SDS011;800;48.824;9.346;2022-07-25T08:10:23;12.13;;;11.23;;
1613;SDS011;800;48.824;9.346;2022-07-25T08:12:50;10.73;;;9.87;;
1613;SDS011;800;48.824;9.346;2022-07-25T08:15:16;11.37;;;10.37;;
1613;SDS011;800;48.824;9.346;2022-07-25T08:17:43;11.80;;;10.90;;
1613;SDS011;800;48.824;9.346;2022-07-25T08:20:10;10.60;;;9.80;;
1613;SDS011;800;48.824;9.346;2022-07-25T08:22:40;10.63;;;9.53;;
1613;SDS011;800;48.824;9.346;2022-07-25T08:25:08;10.90;;;10.10;;
1613;SDS011;800;48.824;9.346;2022-07-25T08:27:36;11.50;;;10.60;;
1613;SDS011;800;48.824;9.346;2022-07-25T08:30:03;11.40;;;10.30;;
1613;SDS011;800;48.824;9.346;2022-07-25T08:32:30;11.20;;;10.30;;
1613;SDS011;800;48.824;9.346;2022-07-25T08:34:55;11.57;;;10.60;;
1613;SDS011;800;48.824;9.346;2022-07-25T08:37:21;12.10;;;11.20;;
1613;SDS011;800;48.824;9.346;2022-07-25T08:39:48;11.60;;;10.77;;
1613;SDS011;800;48.824;9.346;2022-07-25T08:42:15;11.60;;;10.70;;
1613;SDS011;800;48.824;9.346;2022-07-25T08:44:45;13.20;;;12.10;;
1613;SDS011;800;48.824;9.346;2022-07-25T08:47:23;11.97;;;11.07;;
1613;SDS011;800;48.824;9.346;2022-07-25T08:49:49;11.80;;;10.90;;
1613;SDS011;800;48.824;9.346;2022-07-25T08:52:15;12.30;;;11.30;;
1613;SDS011;800;48.824;9.346;2022-07-25T08:54:43;12.90;;;11.80;;
1613;SDS011;800;48.824;9.346;2022-07-25T08:57:10;11.57;;;10.77;;
1613;SDS011;800;48.824;9.346;2022-07-25T08:59:36;12.00;;;10.90;;
1613;SDS011;800;48.824;9.346;2022-07-25T09:02:01;10.60;;;9.80;;
1613;SDS011;800;48.824;9.346;2022-07-25T09:04:31;11.30;;;10.40;;
1613;SDS011;800;48.824;9.346;2022-07-25T09:06:58;14.17;;;11.57;;
1613;SDS011;800;48.824;9.346;2022-07-25T09:09:32;12.47;;;11.47;;
1613;SDS011;800;48.824;9.346;2022-07-25T09:12:01;11.97;;;11.00;;
1613;SDS011;800;48.824;9.346;2022-07-25T09:14:26;12.87;;;11.57;;
1613;SDS011;800;48.824;9.346;2022-07-25T09:16:53;12.03;;;11.13;;
1613;SDS011;800;48.824;9.346;2022-07-25T09:19:20;11.97;;;11.07;;
1613;SDS011;800;48.824;9.346;2022-07-25T09:22:00;11.40;;;10.50;;
1613;SDS011;800;48.824;9.346;2022-07-25T09:24:30;12.10;;;11.10;;
1613;SDS011;800;48.824;9.346;2022-07-25T09:26:57;13.60;;;12.60;;
1613;SDS011;800;48.824;9.346;2022-07-25T09:29:25;12.30;;;11.40;;
1613;SDS011;800;48.824;9.346;2022-07-25T09:31:52;11.97;;;11.13;;
1613;SDS011;800;48.824;9.346;2022-07-25T09:37:15;12.03;;;11.13;;
1613;SDS011;800;48.824;9.346;2022-07-25T09:39:44;11.93;;;11.03;;
1613;SDS011;800;48.824;9.346;2022-07-25T09:45:06;11.77;;;10.80;;
1613;SDS011;800;48.824;9.346;2022-07-25T09:47:58;12.53;;;11.47;;
1613;SDS011;800;48.824;9.346;2022-07-25T09:50:24;12.00;;;11.10;;
1613;SDS011;800;48.824;9.346;2022-07-25T09:52:52;11.67;;;10.77;;
1613;SDS011;800;48.824;9.346;2022-07-25T09:55:19;12.67;;;11.70;;
1613;SDS011;800;48.824;9.346;2022-07-25T09:57:46;13.07;;;11.90;;
1613;SDS011;800;48.824;9.346;2022-07-25T10:00:13;12.77;;;11.80;;
1613;SDS011;800;48.824;9.346;2022-07-25T10:08:20;12.87;;;11.80;;
1613;SDS011;800;48.824;9.346;2022-07-25T10:10:47;12.90;;;11.90;;
1613;SDS011;800;48.824;9.346;2022-07-25T10:13:14;12.47;;;11.57;;
1613;SDS011;800;48.824;9.346;2022-07-25T10:15:52;12.20;;;11.07;;
1613;SDS011;800;48.824;9.346;2022-07-25T10:18:19;13.77;;;12.50;;
1613;SDS011;800;48.824;9.346;2022-07-25T10:20:47;13.60;;;12.37;;
1613;SDS011;800;48.824;9.346;2022-07-25T10:23:18;12.87;;;11.90;;
1613;SDS011;800;48.824;9.346;2022-07-25T10:25:43;12.10;;;11.20;;
1613;SDS011;800;48.824;9.346;2022-07-25T10:28:09;11.30;;;10.50;;
1613;SDS011;800;48.824;9.346;2022-07-25T10:30:37;12.40;;;11.27;;
1613;SDS011;800;48.824;9.346;2022-07-25T10:33:11;11.23;;;10.53;;
1613;SDS011;800;48.824;9.346;2022-07-25T10:35:40;11.47;;;10.57;;
1613;SDS011;800;48.824;9.346;2022-07-25T10:38:06;10.73;;;9.90;;
1613;SDS011;800;48.824;9.346;2022-07-25T10:45:37;10.67;;;9.77;;
1613;SDS011;800;48.824;9.346;2022-07-25T10:48:08;9.90;;;9.10;;
1613;SDS011;800;48.824;9.346;2022-07-25T10:50:48;10.93;;;10.20;;
1613;SDS011;800;48.824;9.346;2022-07-25T11:01:13;10.43;;;9.60;;
1613;SDS011;800;48.824;9.346;2022-07-25T11:03:43;11.23;;;10.43;;
1613;SDS011;800;48.824;9.346;2022-07-25T11:06:09;11.55;;;10.65;;
1613;SDS011;800;48.824;9.346;2022-07-25T11:08:36;11.35;;;9.85;;
1613;SDS011;800;48.824;9.346;2022-07-25T11:11:02;11.30;;;10.38;;
1613;SDS011;800;48.824;9.346;2022-07-25T11:13:27;10.05;;;9.45;;
1613;SDS011;800;48.824;9.346;2022-07-25T11:15:56;10.88;;;10.18;;
1613;SDS011;800;48.824;9.346;2022-07-25T11:18:29;11.32;;;10.43;;
1613;SDS011;800;48.824;9.346;2022-07-25T11:21:00;10.93;;;10.13;;
1613;SDS011;800;48.824;9.346;2022-07-25T11:23:27;10.40;;;9.70;;
1613;SDS011;800;48.824;9.346;2022-07-25T11:28:48;10.47;;;9.73;;
1613;SDS011;800;48.824;9.346;2022-07-25T11:31:15;10.27;;;9.57;;
1613;SDS011;800;48.824;9.346;2022-07-25T11:33:43;10.18;;;9.45;;
1613;SDS011;800;48.824;9.346;2022-07-25T11:36:12;11.18;;;10.48;;
1613;SDS011;800;48.824;9.346;2022-07-25T11:38:38;11.50;;;10.60;;
1613;SDS011;800;48.824;9.346;2022-07-25T11:41:05;10.55;;;9.60;;
1613;SDS011;800;48.824;9.346;2022-07-25T11:43:32;10.35;;;9.70;;
1613;SDS011;800;48.824;9.346;2022-07-25T11:48:33;10.45;;;9.75;;
1613;SDS011;800;48.824;9.346;2022-07-25T11:51:14;10.65;;;9.85;;
1613;SDS011;800;48.824;9.346;2022-07-25T11:53:42;10.48;;;9.65;;
1613;SDS011;800;48.824;9.346;2022-07-25T11:56:11;10.52;;;9.73;;
1613;SDS011;800;48.824;9.346;2022-07-25T11:58:37;9.65;;;9.02;;
1613;SDS011;800;48.824;9.346;2022-07-25T12:01:09;11.35;;;10.45;;
1613;SDS011;800;48.824;9.346;2022-07-25T12:03:36;10.57;;;9.98;;
1613;SDS011;800;48.824;9.346;2022-07-25T12:06:06;10.23;;;9.45;;
1613;SDS011;800;48.824;9.346;2022-07-25T12:08:39;10.75;;;9.98;;
1613;SDS011;800;48.824;9.346;2022-07-25T12:11:19;10.25;;;9.48;;
1613;SDS011;800;48.824;9.346;2022-07-25T12:13:45;9.27;;;8.68;;
1613;SDS011;800;48.824;9.346;2022-07-25T12:16:11;9.90;;;9.07;;
1613;SDS011;800;48.824;9.346;2022-07-25T12:18:37;10.75;;;9.85;;
1613;SDS011;800;48.824;9.346;2022-07-25T12:21:03;9.23;;;8.63;;
1613;SDS011;800;48.824;9.346;2022-07-25T12:23:29;9.65;;;8.95;;
1613;SDS011;800;48.824;9.346;2022-07-25T12:25:55;9.75;;;9.05;;
1613;SDS011;800;48.824;9.346;2022-07-25T12:28:20;9.75;;;9.15;;
1613;SDS011;800;48.824;9.346;2022-07-25T12:30:46;8.90;;;8.25;;
1613;SDS011;800;48.824;9.346;2022-07-25T12:33:12;9.02;;;8.52;;
1613;SDS011;800;48.824;9.346;2022-07-25T12:35:39;9.85;;;9.13;;
1613;SDS011;800;48.824;9.346;2022-07-25T12:38:05;9.23;;;8.55;;
1613;SDS011;800;48.824;9.346;2022-07-25T12:40:31;8.52;;;8.02;;
1613;SDS011;800;48.824;9.346;2022-07-25T12:42:57;9.10;;;8.40;;
1613;SDS011;800;48.824;9.346;2022-07-25T12:45:23;10.52;;;9.63;;
1613;SDS011;800;48.824;9.346;2022-07-25T12:47:49;9.25;;;8.63;;
1613;SDS011;800;48.824;9.346;2022-07-25T12:50:15;9.18;;;8.27;;
1613;SDS011;800;48.824;9.346;2022-07-25T12:52:43;8.90;;;8.30;;
1613;SDS011;800;48.824;9.346;2022-07-25T12:55:11;8.63;;;8.00;;
1613;SDS011;800;48.824;9.346;2022-07-25T12:57:41;8.80;;;8.30;;
1613;SDS011;800;48.824;9.346;2022-07-25T13:00:08;8.45;;;7.85;;
1613;SDS011;800;48.824;9.346;2022-07-25T13:02:36;9.07;;;8.38;;
1613;SDS011;800;48.824;9.346;2022-07-25T13:05:02;7.82;;;7.32;;
1613;SDS011;800;48.824;9.346;2022-07-25T13:07:28;8.90;;;8.20;;
1613;SDS011;800;48.824;9.346;2022-07-25T13:09:53;8.82;;;8.23;;
1613;SDS011;800;48.824;9.346;2022-07-25T13:12:19;8.48;;;7.93;;
1613;SDS011;800;48.824;9.346;2022-07-25T13:14:46;8.57;;;7.97;;
1613;SDS011;800;48.824;9.346;2022-07-25T13:17:12;8.82;;;8.10;;
1613;SDS011;800;48.824;9.346;2022-07-25T13:19:38;8.80;;;8.23;;
1613;SDS011;800;48.824;9.346;2022-07-25T13:22:03;10.70;;;9.65;;
1613;SDS011;800;48.824;9.346;2022-07-25T13:24:29;8.15;;;7.55;;
1613;SDS011;800;48.824;9.346;2022-07-25T13:26:55;8.23;;;7.63;;
1613;SDS011;800;48.824;9.346;2022-07-25T13:29:21;9.70;;;8.90;;
1613;SDS011;800;48.824;9.346;2022-07-25T13:31:47;8.93;;;8.07;;
1613;SDS011;800;48.824;9.346;2022-07-25T13:34:12;8.70;;;8.10;;
1613;SDS011;800;48.824;9.346;2022-07-25T13:36:38;9.13;;;8.27;;
1613;SDS011;800;48.824;9.346;2022-07-25T13:39:04;9.80;;;8.98;;
1613;SDS011;800;48.824;9.346;2022-07-25T13:41:30;9.25;;;8.50;;
1613;SDS011;800;48.824;9.346;2022-07-25T13:43:56;9.13;;;8.53;;
1613;SDS011;800;48.824;9.346;2022-07-25T13:46:22;10.20;;;9.23;;
1613;SDS011;800;48.824;9.346;2022-07-25T13:48:48;8.90;;;8.30;;
1613;SDS011;800;48.824;9.346;2022-07-25T13:51:13;9.57;;;8.87;;
1613;SDS011;800;48.824;9.346;2022-07-25T13:53:39;9.17;;;8.47;;
1613;SDS011;800;48.824;9.346;2022-07-25T13:56:05;9.27;;;8.67;;
1613;SDS011;800;48.824;9.346;2022-07-25T13:58:31;9.13;;;8.53;;
1613;SDS011;800;48.824;9.346;2022-07-25T14:00:56;9.60;;;8.90;;
1613;SDS011;800;48.824;9.346;2022-07-25T14:03:22;9.10;;;8.50;;
1613;SDS011;800;48.824;9.346;2022-07-25T14:05:48;9.63;;;8.80;;
1613;SDS011;800;48.824;9.346;2022-07-25T14:08:13;10.07;;;9.27;;
1613;SDS011;800;48.824;9.346;2022-07-25T14:10:39;8.30;;;7.50;;
1613;SDS011;800;48.824;9.346;2022-07-25T14:13:05;9.93;;;8.93;;
1613;SDS011;800;48.824;9.346;2022-07-25T14:15:30;10.23;;;9.33;;
1613;SDS011;800;48.824;9.346;2022-07-25T14:17:56;9.60;;;8.80;;
1613;SDS011;800;48.824;9.346;2022-07-25T14:20:22;9.17;;;8.20;;
1613;SDS011;800;48.824;9.346;2022-07-25T14:22:47;11.90;;;10.07;;
1613;SDS011;800;48.824;9.346;2022-07-25T14:25:13;9.33;;;8.53;;
1613;SDS011;800;48.824;9.346;2022-07-25T14:27:39;9.67;;;9.07;;
1613;SDS011;800;48.824;9.346;2022-07-25T14:30:05;9.60;;;8.80;;
1613;SDS011;800;48.824;9.346;2022-07-25T14:32:33;9.10;;;8.53;;
1613;SDS011;800;48.824;9.346;2022-07-25T14:34:59;9.17;;;8.47;;
1613;SDS011;800;48.824;9.346;2022-07-25T14:37:26;8.40;;;7.80;;
1613;SDS011;800;48.824;9.346;2022-07-25T14:39:52;10.73;;;9.83;;
1613;SDS011;800;48.824;9.346;2022-07-25T14:42:18;10.80;;;9.80;;
1613;SDS011;800;48.824;9.346;2022-07-25T14:44:43;10.50;;;9.50;;
1613;SDS011;800;48.824;9.346;2022-07-25T14:47:09;9.50;;;8.80;;
1613;SDS011;800;48.824;9.346;2022-07-25T14:49:35;10.03;;;9.23;;
1613;SDS011;800;48.824;9.346;2022-07-25T14:52:01;9.33;;;8.53;;
1613;SDS011;800;48.824;9.346;2022-07-25T14:54:26;10.83;;;10.07;;
1613;SDS011;800;48.824;9.346;2022-07-25T14:56:55;10.40;;;9.70;;
1613;SDS011;800;48.824;9.346;2022-07-25T14:59:21;10.07;;;9.37;;
1613;SDS011;800;48.824;9.346;2022-07-25T15:01:48;9.43;;;8.70;;
1613;SDS011;800;48.824;9.346;2022-07-25T15:04:14;9.60;;;8.87;;
1613;SDS011;800;48.824;9.346;2022-07-25T15:06:39;10.20;;;9.40;;
1613;SDS011;800;48.824;9.346;2022-07-25T15:09:05;9.40;;;8.70;;
1613;SDS011;800;48.824;9.346;2022-07-25T15:11:30;9.80;;;8.90;;
1613;SDS011;800;48.824;9.346;2022-07-25T15:13:56;10.83;;;10.00;;
1613;SDS011;800;48.824;9.346;2022-07-25T15:16:22;10.10;;;9.40;;
1613;SDS011;800;48.824;9.346;2022-07-25T15:18:48;11.70;;;10.80;;
1613;SDS011;800;48.824;9.346;2022-07-25T15:21:14;10.10;;;9.20;;
1613;SDS011;800;48.824;9.346;2022-07-25T15:23:40;10.30;;;9.30;;
1613;SDS011;800;48.824;9.346;2022-07-25T15:26:06;9.83;;;8.70;;
1613;SDS011;800;48.824;9.346;2022-07-25T15:28:33;10.17;;;9.37;;
1613;SDS011;800;48.824;9.346;2022-07-25T15:31:00;10.80;;;9.80;;
1613;SDS011;800;48.824;9.346;2022-07-25T15:33:26;12.33;;;9.20;;
1613;SDS011;800;48.824;9.346;2022-07-25T15:35:51;10.10;;;9.30;;